sensor_id;sensor_type;location;lat;lon;timestamp;P1;durP1;ratioP1;P2;durP2;ratioP2
31438;SDS011;18062;48.872;9.220;2022-09-27T00:00:44;9.83;;;9.43;;
31438;SDS011;18062;48.872;9.220;2022-09-27T00:03:10;10.80;;;10.30;;
31438;SDS011;18062;48.872;9.220;2022-09-27T00:05:36;6.83;;;6.53;;
31438;SDS011;18062;48.872;9.220;2022-09-27T00:08:02;9.07;;;8.67;;
31438;SDS011;18062;48.872;9.220;2022-09-27T00:10:29;10.83;;;10.33;;
31438;SDS011;18062;48.872;9.220;2022-09-27T00:12:56;11.30;;;10.80;;
31438;SDS011;18062;48.872;9.220;2022-09-27T00:15:23;8.43;;;8.10;;
31438;SDS011;18062;48.872;9.220;2022-09-27T00:17:49;9.40;;;9.00;;
31438;SDS011;18062;48.872;9.220;2022-09-27T00:20:16;13.13;;;12.53;;
31438;SDS011;18062;48.872;9.220;2022-09-27T00:22:43;10.37;;;9.93;;
31438;SDS011;18062;48.872;9.220;2022-09-27T00:25:09;10.93;;;10.47;;
31438;SDS011;18062;48.872;9.220;2022-09-27T00:27:35;7.83;;;7.53;;
31438;SDS011;18062;48.872;9.220;2022-09-27T00:30:01;8.20;;;7.87;;
31438;SDS011;18062;48.872;9.220;2022-09-27T00:32:27;9.97;;;9.57;;
31438;SDS011;18062;48.872;9.220;2022-09-27T00:34:53;9.77;;;9.33;;
31438;SDS011;18062;48.872;9.220;2022-09-27T00:37:19;8.43;;;8.10;;
31438;SDS011;18062;48.872;9.220;2022-09-27T00:39:45;8.17;;;7.87;;
31438;SDS011;18062;48.872;9.220;2022-09-27T00:42:11;10.43;;;9.97;;
31438;SDS011;18062;48.872;9.220;2022-09-27T00:47:10;7.63;;;7.33;;
31438;SDS011;18062;48.872;9.220;2022-09-27T00:49:42;8.27;;;7.93;;
31438;SDS011;18062;48.872;9.220;2022-09-27T00:52:10;10.93;;;10.43;;
31438;SDS011;18062;48.872;9.220;2022-09-27T00:54:38;10.37;;;9.97;;
31438;SDS011;18062;48.872;9.220;2022-09-27T00:57:05;10.27;;;9.87;;
31438;SDS011;18062;48.872;9.220;2022-09-27T00:59:32;9.30;;;8.90;;
31438;SDS011;18062;48.872;9.220;2022-09-27T01:01:59;12.23;;;11.73;;
31438;SDS011;18062;48.872;9.220;2022-09-27T01:04:26;8.43;;;8.03;;
31438;SDS011;18062;48.872;9.220;2022-09-27T01:06:52;9.47;;;9.07;;
31438;SDS011;18062;48.872;9.220;2022-09-27T01:09:18;8.70;;;8.30;;
31438;SDS011;18062;48.872;9.220;2022-09-27T01:29:57;9.73;;;9.33;;
31438;SDS011;18062;48.872;9.220;2022-09-27T01:32:34;13.50;;;12.93;;
31438;SDS011;18062;48.872;9.220;2022-09-27T01:35:04;9.27;;;8.90;;
31438;SDS011;18062;48.872;9.220;2022-09-27T01:37:36;8.87;;;8.50;;
31438;SDS011;18062;48.872;9.220;2022-09-27T01:45:35;12.00;;;11.50;;
31438;SDS011;18062;48.872;9.220;2022-09-27T01:48:06;13.27;;;12.70;;
31438;SDS011;18062;48.872;9.220;2022-09-27T01:50:36;9.27;;;8.90;;
31438;SDS011;18062;48.872;9.220;2022-09-27T01:53:11;11.07;;;10.63;;
31438;SDS011;18062;48.872;9.220;2022-09-27T01:55:39;13.30;;;12.70;;
31438;SDS011;18062;48.872;9.220;2022-09-27T01:58:09;11.37;;;10.93;;
31438;SDS011;18062;48.872;9.220;2022-09-27T02:00:36;10.83;;;10.37;;
31438;SDS011;18062;48.872;9.220;2022-09-27T02:03:09;17.97;;;17.20;;
31438;SDS011;18062;48.872;9.220;2022-09-27T02:05:49;9.73;;;9.33;;
31438;SDS011;18062;48.872;9.220;2022-09-27T02:08:39;8.03;;;7.73;;
31438;SDS011;18062;48.872;9.220;2022-09-27T02:11:08;13.80;;;13.23;;
31438;SDS011;18062;48.872;9.220;2022-09-27T02:16:14;7.97;;;7.67;;
31438;SDS011;18062;48.872;9.220;2022-09-27T02:21:13;8.57;;;8.27;;
31438;SDS011;18062;48.872;9.220;2022-09-27T02:23:53;11.13;;;10.67;;
31438;SDS011;18062;48.872;9.220;2022-09-27T02:31:19;6.27;;;6.07;;
31438;SDS011;18062;48.872;9.220;2022-09-27T02:36:14;8.23;;;7.93;;
31438;SDS011;18062;48.872;9.220;2022-09-27T02:38:41;8.80;;;8.40;;
31438;SDS011;18062;48.872;9.220;2022-09-27T02:41:15;8.23;;;7.93;;
31438;SDS011;18062;48.872;9.220;2022-09-27T02:43:41;8.30;;;8.00;;
31438;SDS011;18062;48.872;9.220;2022-09-27T02:51:33;11.77;;;11.27;;
31438;SDS011;18062;48.872;9.220;2022-09-27T02:54:25;8.60;;;8.27;;
31438;SDS011;18062;48.872;9.220;2022-09-27T03:04:36;13.53;;;12.93;;
31438;SDS011;18062;48.872;9.220;2022-09-27T03:07:05;14.33;;;13.73;;
31438;SDS011;18062;48.872;9.220;2022-09-27T03:09:44;8.43;;;8.13;;
31438;SDS011;18062;48.872;9.220;2022-09-27T03:12:12;16.37;;;15.70;;
31438;SDS011;18062;48.872;9.220;2022-09-27T03:14:38;13.87;;;13.27;;
31438;SDS011;18062;48.872;9.220;2022-09-27T03:17:04;15.77;;;15.10;;
31438;SDS011;18062;48.872;9.220;2022-09-27T03:19:30;13.50;;;12.93;;
31438;SDS011;18062;48.872;9.220;2022-09-27T03:21:56;17.40;;;16.67;;
31438;SDS011;18062;48.872;9.220;2022-09-27T03:24:22;11.60;;;11.13;;
31438;SDS011;18062;48.872;9.220;2022-09-27T03:26:48;12.27;;;11.73;;
31438;SDS011;18062;48.872;9.220;2022-09-27T03:29:14;16.37;;;15.67;;
31438;SDS011;18062;48.872;9.220;2022-09-27T03:31:41;18.77;;;17.93;;
31438;SDS011;18062;48.872;9.220;2022-09-27T03:34:07;14.40;;;13.77;;
31438;SDS011;18062;48.872;9.220;2022-09-27T03:36:33;14.47;;;13.87;;
31438;SDS011;18062;48.872;9.220;2022-09-27T03:38:59;19.30;;;18.47;;
31438;SDS011;18062;48.872;9.220;2022-09-27T03:41:25;17.73;;;16.97;;
31438;SDS011;18062;48.872;9.220;2022-09-27T03:43:51;16.83;;;16.13;;
31438;SDS011;18062;48.872;9.220;2022-09-27T03:46:17;17.03;;;16.23;;
31438;SDS011;18062;48.872;9.220;2022-09-27T03:48:43;15.30;;;14.67;;
31438;SDS011;18062;48.872;9.220;2022-09-27T03:51:09;12.47;;;11.93;;
31438;SDS011;18062;48.872;9.220;2022-09-27T03:53:38;13.57;;;12.97;;
31438;SDS011;18062;48.872;9.220;2022-09-27T03:56:04;21.80;;;20.83;;
31438;SDS011;18062;48.872;9.220;2022-09-27T03:58:30;14.33;;;13.73;;
31438;SDS011;18062;48.872;9.220;2022-09-27T04:00:56;19.47;;;18.63;;
31438;SDS011;18062;48.872;9.220;2022-09-27T04:03:22;16.83;;;16.10;;
31438;SDS011;18062;48.872;9.220;2022-09-27T04:05:50;13.70;;;13.10;;
31438;SDS011;18062;48.872;9.220;2022-09-27T04:08:16;15.93;;;15.23;;
31438;SDS011;18062;48.872;9.220;2022-09-27T04:10:42;12.40;;;11.90;;
31438;SDS011;18062;48.872;9.220;2022-09-27T04:13:09;14.03;;;13.43;;
31438;SDS011;18062;48.872;9.220;2022-09-27T04:15:35;12.17;;;11.67;;
31438;SDS011;18062;48.872;9.220;2022-09-27T04:18:03;20.00;;;19.13;;
31438;SDS011;18062;48.872;9.220;2022-09-27T04:20:29;12.87;;;12.30;;
31438;SDS011;18062;48.872;9.220;2022-09-27T04:22:55;17.80;;;17.03;;
31438;SDS011;18062;48.872;9.220;2022-09-27T04:25:21;13.63;;;13.07;;
31438;SDS011;18062;48.872;9.220;2022-09-27T04:27:47;19.67;;;18.80;;
31438;SDS011;18062;48.872;9.220;2022-09-27T04:30:16;13.47;;;12.87;;
31438;SDS011;18062;48.872;9.220;2022-09-27T04:32:42;15.00;;;14.33;;
31438;SDS011;18062;48.872;9.220;2022-09-27T04:35:09;20.57;;;19.57;;
31438;SDS011;18062;48.872;9.220;2022-09-27T04:37:54;18.00;;;17.23;;
31438;SDS011;18062;48.872;9.220;2022-09-27T04:40:21;19.57;;;18.73;;
31438;SDS011;18062;48.872;9.220;2022-09-27T04:42:47;11.97;;;11.47;;
31438;SDS011;18062;48.872;9.220;2022-09-27T04:45:14;15.23;;;14.57;;
31438;SDS011;18062;48.872;9.220;2022-09-27T04:47:47;14.40;;;13.77;;
31438;SDS011;18062;48.872;9.220;2022-09-27T04:50:14;15.87;;;15.07;;
31438;SDS011;18062;48.872;9.220;2022-09-27T04:52:41;14.00;;;13.30;;
31438;SDS011;18062;48.872;9.220;2022-09-27T04:55:07;18.10;;;17.33;;
31438;SDS011;18062;48.872;9.220;2022-09-27T04:57:34;13.53;;;12.97;;
31438;SDS011;18062;48.872;9.220;2022-09-27T05:00:00;13.90;;;13.33;;
31438;SDS011;18062;48.872;9.220;2022-09-27T05:02:26;11.93;;;11.43;;
31438;SDS011;18062;48.872;9.220;2022-09-27T05:04:53;13.83;;;13.13;;
31438;SDS011;18062;48.872;9.220;2022-09-27T05:07:24;16.07;;;15.40;;
31438;SDS011;18062;48.872;9.220;2022-09-27T05:09:50;11.27;;;10.77;;
31438;SDS011;18062;48.872;9.220;2022-09-27T05:12:17;12.40;;;11.90;;
31438;SDS011;18062;48.872;9.220;2022-09-27T05:14:43;16.67;;;15.90;;
31438;SDS011;18062;48.872;9.220;2022-09-27T05:17:09;16.20;;;15.53;;
31438;SDS011;18062;48.872;9.220;2022-09-27T05:19:35;15.17;;;14.50;;
31438;SDS011;18062;48.872;9.220;2022-09-27T05:22:03;12.87;;;12.33;;
31438;SDS011;18062;48.872;9.220;2022-09-27T05:24:29;14.17;;;13.50;;
31438;SDS011;18062;48.872;9.220;2022-09-27T05:26:57;12.70;;;12.13;;
31438;SDS011;18062;48.872;9.220;2022-09-27T05:29:23;10.93;;;10.50;;
31438;SDS011;18062;48.872;9.220;2022-09-27T05:31:49;11.83;;;11.30;;
31438;SDS011;18062;48.872;9.220;2022-09-27T05:34:15;14.30;;;13.70;;
31438;SDS011;18062;48.872;9.220;2022-09-27T05:36:47;13.20;;;12.67;;
31438;SDS011;18062;48.872;9.220;2022-09-27T05:39:13;11.00;;;10.53;;
31438;SDS011;18062;48.872;9.220;2022-09-27T05:41:44;11.07;;;10.57;;
31438;SDS011;18062;48.872;9.220;2022-09-27T05:44:11;17.80;;;17.00;;
31438;SDS011;18062;48.872;9.220;2022-09-27T05:46:37;12.60;;;12.10;;
31438;SDS011;18062;48.872;9.220;2022-09-27T05:49:04;18.73;;;17.90;;
31438;SDS011;18062;48.872;9.220;2022-09-27T05:51:30;12.20;;;11.70;;
31438;SDS011;18062;48.872;9.220;2022-09-27T05:53:56;16.13;;;15.47;;
31438;SDS011;18062;48.872;9.220;2022-09-27T05:56:23;13.83;;;13.23;;
31438;SDS011;18062;48.872;9.220;2022-09-27T05:58:49;9.80;;;9.40;;
31438;SDS011;18062;48.872;9.220;2022-09-27T06:01:15;14.23;;;13.63;;
31438;SDS011;18062;48.872;9.220;2022-09-27T06:03:41;11.90;;;11.40;;
31438;SDS011;18062;48.872;9.220;2022-09-27T06:06:07;14.23;;;13.60;;
31438;SDS011;18062;48.872;9.220;2022-09-27T06:08:35;12.40;;;11.87;;
31438;SDS011;18062;48.872;9.220;2022-09-27T06:11:08;11.27;;;10.80;;
31438;SDS011;18062;48.872;9.220;2022-09-27T06:13:36;14.17;;;13.57;;
31438;SDS011;18062;48.872;9.220;2022-09-27T06:16:03;15.90;;;15.20;;
31438;SDS011;18062;48.872;9.220;2022-09-27T06:18:29;15.87;;;15.17;;
31438;SDS011;18062;48.872;9.220;2022-09-27T06:20:58;7.90;;;7.60;;
31438;SDS011;18062;48.872;9.220;2022-09-27T06:23:24;10.60;;;10.03;;
31438;SDS011;18062;48.872;9.220;2022-09-27T06:25:51;6.53;;;6.33;;
31438;SDS011;18062;48.872;9.220;2022-09-27T06:28:18;10.03;;;9.63;;
31438;SDS011;18062;48.872;9.220;2022-09-27T06:30:47;11.33;;;10.77;;
31438;SDS011;18062;48.872;9.220;2022-09-27T06:33:17;7.83;;;7.53;;
31438;SDS011;18062;48.872;9.220;2022-09-27T06:35:43;6.90;;;6.60;;
31438;SDS011;18062;48.872;9.220;2022-09-27T06:38:11;9.37;;;8.97;;
31438;SDS011;18062;48.872;9.220;2022-09-27T06:40:37;8.57;;;8.17;;
31438;SDS011;18062;48.872;9.220;2022-09-27T06:43:04;19.60;;;18.80;;
31438;SDS011;18062;48.872;9.220;2022-09-27T06:45:32;11.40;;;10.93;;
31438;SDS011;18062;48.872;9.220;2022-09-27T06:47:59;7.63;;;7.33;;
31438;SDS011;18062;48.872;9.220;2022-09-27T06:50:26;9.90;;;9.50;;
31438;SDS011;18062;48.872;9.220;2022-09-27T06:52:53;7.87;;;7.57;;
31438;SDS011;18062;48.872;9.220;2022-09-27T06:55:19;6.07;;;5.87;;
31438;SDS011;18062;48.872;9.220;2022-09-27T06:57:46;9.27;;;8.87;;
31438;SDS011;18062;48.872;9.220;2022-09-27T07:00:30;12.33;;;11.83;;
31438;SDS011;18062;48.872;9.220;2022-09-27T07:02:57;10.17;;;9.77;;
31438;SDS011;18062;48.872;9.220;2022-09-27T07:05:27;12.20;;;11.63;;
31438;SDS011;18062;48.872;9.220;2022-09-27T07:07:53;9.57;;;9.17;;
31438;SDS011;18062;48.872;9.220;2022-09-27T07:10:21;12.03;;;11.53;;
31438;SDS011;18062;48.872;9.220;2022-09-27T07:12:47;13.13;;;12.60;;
31438;SDS011;18062;48.872;9.220;2022-09-27T07:15:14;13.90;;;13.30;;
31438;SDS011;18062;48.872;9.220;2022-09-27T07:17:40;14.10;;;13.50;;
31438;SDS011;18062;48.872;9.220;2022-09-27T07:20:06;20.70;;;19.80;;
31438;SDS011;18062;48.872;9.220;2022-09-27T07:22:38;14.50;;;13.90;;
31438;SDS011;18062;48.872;9.220;2022-09-27T07:25:05;13.80;;;13.23;;
31438;SDS011;18062;48.872;9.220;2022-09-27T07:27:31;11.27;;;10.80;;
31438;SDS011;18062;48.872;9.220;2022-09-27T07:29:59;10.30;;;9.90;;
31438;SDS011;18062;48.872;9.220;2022-09-27T07:32:25;10.63;;;10.23;;
31438;SDS011;18062;48.872;9.220;2022-09-27T07:34:51;9.13;;;8.73;;
31438;SDS011;18062;48.872;9.220;2022-09-27T07:37:17;9.10;;;8.70;;
31438;SDS011;18062;48.872;9.220;2022-09-27T07:39:43;12.47;;;11.97;;
31438;SDS011;18062;48.872;9.220;2022-09-27T07:42:09;10.33;;;9.93;;
31438;SDS011;18062;48.872;9.220;2022-09-27T07:44:35;10.20;;;9.80;;
31438;SDS011;18062;48.872;9.220;2022-09-27T07:47:01;10.43;;;10.03;;
31438;SDS011;18062;48.872;9.220;2022-09-27T07:49:27;12.43;;;11.93;;
31438;SDS011;18062;48.872;9.220;2022-09-27T07:51:53;12.07;;;11.57;;
31438;SDS011;18062;48.872;9.220;2022-09-27T07:54:20;10.87;;;10.43;;
31438;SDS011;18062;48.872;9.220;2022-09-27T07:56:46;13.03;;;12.50;;
31438;SDS011;18062;48.872;9.220;2022-09-27T07:59:12;9.90;;;9.47;;
31438;SDS011;18062;48.872;9.220;2022-09-27T08:01:38;9.93;;;9.53;;
31438;SDS011;18062;48.872;9.220;2022-09-27T08:04:04;10.20;;;9.73;;
31438;SDS011;18062;48.872;9.220;2022-09-27T08:06:30;7.70;;;7.40;;
31438;SDS011;18062;48.872;9.220;2022-09-27T08:08:56;8.20;;;7.90;;
31438;SDS011;18062;48.872;9.220;2022-09-27T08:11:23;8.17;;;7.83;;
31438;SDS011;18062;48.872;9.220;2022-09-27T08:13:49;8.57;;;8.20;;
31438;SDS011;18062;48.872;9.220;2022-09-27T08:16:21;11.90;;;11.40;;
31438;SDS011;18062;48.872;9.220;2022-09-27T08:18:47;7.60;;;7.27;;
31438;SDS011;18062;48.872;9.220;2022-09-27T08:21:13;8.73;;;8.40;;
31438;SDS011;18062;48.872;9.220;2022-09-27T08:23:39;8.17;;;7.87;;
31438;SDS011;18062;48.872;9.220;2022-09-27T08:26:06;7.33;;;7.03;;
31438;SDS011;18062;48.872;9.220;2022-09-27T08:28:32;8.40;;;8.07;;
31438;SDS011;18062;48.872;9.220;2022-09-27T08:30:58;11.40;;;10.93;;
31438;SDS011;18062;48.872;9.220;2022-09-27T08:33:24;11.17;;;10.73;;
31438;SDS011;18062;48.872;9.220;2022-09-27T08:35:51;11.40;;;10.93;;
31438;SDS011;18062;48.872;9.220;2022-09-27T08:38:17;14.00;;;13.43;;
31438;SDS011;18062;48.872;9.220;2022-09-27T08:43:19;14.00;;;13.40;;
31438;SDS011;18062;48.872;9.220;2022-09-27T08:45:53;20.57;;;19.70;;
31438;SDS011;18062;48.872;9.220;2022-09-27T08:48:20;24.20;;;23.13;;
31438;SDS011;18062;48.872;9.220;2022-09-27T08:50:47;35.20;;;33.63;;
31438;SDS011;18062;48.872;9.220;2022-09-27T08:55:41;37.53;;;35.90;;
31438;SDS011;18062;48.872;9.220;2022-09-27T09:00:53;33.80;;;32.37;;
31438;SDS011;18062;48.872;9.220;2022-09-27T09:03:21;28.70;;;27.47;;
31438;SDS011;18062;48.872;9.220;2022-09-27T09:06:31;28.63;;;27.40;;
31438;SDS011;18062;48.872;9.220;2022-09-27T09:19:29;22.30;;;21.40;;
31438;SDS011;18062;48.872;9.220;2022-09-27T09:22:06;22.97;;;21.97;;
31438;SDS011;18062;48.872;9.220;2022-09-27T09:34:50;36.53;;;34.90;;
31438;SDS011;18062;48.872;9.220;2022-09-27T09:37:20;46.07;;;44.00;;
31438;SDS011;18062;48.872;9.220;2022-09-27T09:47:35;291.30;;;277.20;;
31438;SDS011;18062;48.872;9.220;2022-09-27T09:50:05;329.87;;;313.63;;
31438;SDS011;18062;48.872;9.220;2022-09-27T09:52:43;366.37;;;347.90;;
31438;SDS011;18062;48.872;9.220;2022-09-27T09:55:16;334.90;;;317.60;;
31438;SDS011;18062;48.872;9.220;2022-09-27T09:57:48;308.93;;;293.43;;
31438;SDS011;18062;48.872;9.220;2022-09-27T10:00:16;248.10;;;235.80;;
31438;SDS011;18062;48.872;9.220;2022-09-27T10:02:43;245.10;;;232.63;;
31438;SDS011;18062;48.872;9.220;2022-09-27T10:05:13;243.73;;;231.80;;
31438;SDS011;18062;48.872;9.220;2022-09-27T10:07:39;242.10;;;229.67;;
31438;SDS011;18062;48.872;9.220;2022-09-27T10:10:06;208.93;;;198.73;;
31438;SDS011;18062;48.872;9.220;2022-09-27T10:12:32;202.97;;;192.97;;
31438;SDS011;18062;48.872;9.220;2022-09-27T10:15:02;189.13;;;179.93;;
31438;SDS011;18062;48.872;9.220;2022-09-27T10:17:39;160.97;;;153.37;;
31438;SDS011;18062;48.872;9.220;2022-09-27T10:20:06;168.37;;;160.53;;
31438;SDS011;18062;48.872;9.220;2022-09-27T10:22:39;153.90;;;146.53;;
31438;SDS011;18062;48.872;9.220;2022-09-27T10:25:08;146.93;;;139.97;;
31438;SDS011;18062;48.872;9.220;2022-09-27T10:27:41;116.07;;;110.67;;
31438;SDS011;18062;48.872;9.220;2022-09-27T10:30:40;92.73;;;88.57;;
31438;SDS011;18062;48.872;9.220;2022-09-27T10:33:04;82.50;;;78.73;;
31438;SDS011;18062;48.872;9.220;2022-09-27T10:35:32;94.13;;;89.93;;
31438;SDS011;18062;48.872;9.220;2022-09-27T10:40:37;74.67;;;71.40;;
31438;SDS011;18062;48.872;9.220;2022-09-27T10:43:18;70.53;;;67.40;;
31438;SDS011;18062;48.872;9.220;2022-09-27T10:45:48;53.23;;;50.90;;
31438;SDS011;18062;48.872;9.220;2022-09-27T10:48:18;49.10;;;46.90;;
31438;SDS011;18062;48.872;9.220;2022-09-27T10:50:56;50.87;;;48.60;;
31438;SDS011;18062;48.872;9.220;2022-09-27T10:53:23;33.10;;;31.63;;
31438;SDS011;18062;48.872;9.220;2022-09-27T10:55:50;38.20;;;36.47;;
31438;SDS011;18062;48.872;9.220;2022-09-27T11:00:52;39.23;;;37.50;;
31438;SDS011;18062;48.872;9.220;2022-09-27T11:03:19;30.80;;;29.47;;
31438;SDS011;18062;48.872;9.220;2022-09-27T11:05:45;29.13;;;27.77;;
31438;SDS011;18062;48.872;9.220;2022-09-27T11:10:43;34.60;;;33.10;;
31438;SDS011;18062;48.872;9.220;2022-09-27T11:13:14;31.67;;;30.13;;
31438;SDS011;18062;48.872;9.220;2022-09-27T11:15:54;27.43;;;26.23;;
31438;SDS011;18062;48.872;9.220;2022-09-27T11:26:16;17.33;;;16.63;;
31438;SDS011;18062;48.872;9.220;2022-09-27T11:28:47;13.10;;;12.47;;
31438;SDS011;18062;48.872;9.220;2022-09-27T11:46:38;13.70;;;13.10;;
31438;SDS011;18062;48.872;9.220;2022-09-27T11:59:43;7.53;;;7.23;;
31438;SDS011;18062;48.872;9.220;2022-09-27T12:07:38;21.67;;;20.73;;
31438;SDS011;18062;48.872;9.220;2022-09-27T12:10:08;20.23;;;19.37;;
31438;SDS011;18062;48.872;9.220;2022-09-27T12:12:35;17.90;;;17.17;;
31438;SDS011;18062;48.872;9.220;2022-09-27T12:15:05;17.00;;;16.30;;
31438;SDS011;18062;48.872;9.220;2022-09-27T12:17:38;13.43;;;12.90;;
31438;SDS011;18062;48.872;9.220;2022-09-27T12:20:09;12.47;;;11.93;;
31438;SDS011;18062;48.872;9.220;2022-09-27T12:22:42;9.07;;;8.70;;
31438;SDS011;18062;48.872;9.220;2022-09-27T12:25:13;11.33;;;10.80;;
31438;SDS011;18062;48.872;9.220;2022-09-27T12:27:45;10.93;;;10.47;;
31438;SDS011;18062;48.872;9.220;2022-09-27T12:30:13;11.57;;;11.07;;
31438;SDS011;18062;48.872;9.220;2022-09-27T12:35:26;9.63;;;9.23;;
31438;SDS011;18062;48.872;9.220;2022-09-27T12:37:57;7.13;;;6.83;;
31438;SDS011;18062;48.872;9.220;2022-09-27T12:42:52;10.67;;;10.27;;
31438;SDS011;18062;48.872;9.220;2022-09-27T12:45:26;10.70;;;10.30;;
31438;SDS011;18062;48.872;9.220;2022-09-27T12:48:01;8.20;;;7.90;;
31438;SDS011;18062;48.872;9.220;2022-09-27T12:52:57;12.07;;;11.57;;
31438;SDS011;18062;48.872;9.220;2022-09-27T13:06:11;8.23;;;7.90;;
31438;SDS011;18062;48.872;9.220;2022-09-27T13:08:49;11.57;;;11.10;;
31438;SDS011;18062;48.872;9.220;2022-09-27T13:11:23;14.20;;;13.60;;
31438;SDS011;18062;48.872;9.220;2022-09-27T13:13:53;14.83;;;14.23;;
31438;SDS011;18062;48.872;9.220;2022-09-27T13:16:20;12.53;;;12.00;;
31438;SDS011;18062;48.872;9.220;2022-09-27T13:24:01;7.83;;;7.53;;
31438;SDS011;18062;48.872;9.220;2022-09-27T13:28:57;7.20;;;6.90;;
31438;SDS011;18062;48.872;9.220;2022-09-27T13:34:36;8.50;;;8.20;;
31438;SDS011;18062;48.872;9.220;2022-09-27T13:36:56;11.07;;;10.63;;
31438;SDS011;18062;48.872;9.220;2022-09-27T13:39:22;11.73;;;11.23;;
31438;SDS011;18062;48.872;9.220;2022-09-27T13:41:59;8.57;;;8.27;;
31438;SDS011;18062;48.872;9.220;2022-09-27T13:47:24;14.07;;;13.47;;
31438;SDS011;18062;48.872;9.220;2022-09-27T13:49:56;19.97;;;19.13;;
31438;SDS011;18062;48.872;9.220;2022-09-27T13:52:31;12.87;;;12.37;;
31438;SDS011;18062;48.872;9.220;2022-09-27T13:54:58;12.50;;;12.00;;
31438;SDS011;18062;48.872;9.220;2022-09-27T14:00:03;14.03;;;13.47;;
31438;SDS011;18062;48.872;9.220;2022-09-27T14:02:37;16.17;;;15.50;;
31438;SDS011;18062;48.872;9.220;2022-09-27T14:05:06;18.30;;;17.53;;
31438;SDS011;18062;48.872;9.220;2022-09-27T14:07:39;16.17;;;15.47;;
31438;SDS011;18062;48.872;9.220;2022-09-27T14:10:06;14.87;;;14.27;;
31438;SDS011;18062;48.872;9.220;2022-09-27T14:12:38;10.93;;;10.50;;
31438;SDS011;18062;48.872;9.220;2022-09-27T14:15:04;11.87;;;11.37;;
31438;SDS011;18062;48.872;9.220;2022-09-27T14:17:32;9.93;;;9.53;;
31438;SDS011;18062;48.872;9.220;2022-09-27T14:19:58;12.10;;;11.57;;
31438;SDS011;18062;48.872;9.220;2022-09-27T14:22:25;7.13;;;6.83;;
31438;SDS011;18062;48.872;9.220;2022-09-27T14:24:52;14.43;;;13.83;;
31438;SDS011;18062;48.872;9.220;2022-09-27T14:27:19;9.83;;;9.43;;
31438;SDS011;18062;48.872;9.220;2022-09-27T14:29:47;10.97;;;10.47;;
31438;SDS011;18062;48.872;9.220;2022-09-27T14:32:15;15.20;;;14.57;;
31438;SDS011;18062;48.872;9.220;2022-09-27T14:34:42;7.20;;;6.90;;
31438;SDS011;18062;48.872;9.220;2022-09-27T14:37:19;5.50;;;5.30;;
31438;SDS011;18062;48.872;9.220;2022-09-27T14:40:01;9.63;;;9.23;;
31438;SDS011;18062;48.872;9.220;2022-09-27T14:42:31;12.80;;;12.30;;
31438;SDS011;18062;48.872;9.220;2022-09-27T14:45:04;8.43;;;8.13;;
31438;SDS011;18062;48.872;9.220;2022-09-27T14:47:31;9.37;;;8.97;;
31438;SDS011;18062;48.872;9.220;2022-09-27T14:49:58;7.80;;;7.50;;
31438;SDS011;18062;48.872;9.220;2022-09-27T14:52:25;8.03;;;7.73;;
31438;SDS011;18062;48.872;9.220;2022-09-27T14:55:05;9.03;;;8.63;;
31438;SDS011;18062;48.872;9.220;2022-09-27T14:57:31;22.23;;;21.23;;
31438;SDS011;18062;48.872;9.220;2022-09-27T15:00:19;35.00;;;33.50;;
31438;SDS011;18062;48.872;9.220;2022-09-27T15:02:44;35.23;;;33.77;;
31438;SDS011;18062;48.872;9.220;2022-09-27T15:05:15;54.23;;;51.87;;
31438;SDS011;18062;48.872;9.220;2022-09-27T15:07:43;68.17;;;65.10;;
31438;SDS011;18062;48.872;9.220;2022-09-27T15:10:13;89.30;;;85.30;;
31438;SDS011;18062;48.872;9.220;2022-09-27T15:12:41;105.37;;;100.70;;
31438;SDS011;18062;48.872;9.220;2022-09-27T15:15:11;141.47;;;135.17;;
31438;SDS011;18062;48.872;9.220;2022-09-27T15:17:41;172.63;;;164.57;;
31438;SDS011;18062;48.872;9.220;2022-09-27T15:23:03;80.03;;;76.33;;
31438;SDS011;18062;48.872;9.220;2022-09-27T15:25:42;60.27;;;57.43;;
31438;SDS011;18062;48.872;9.220;2022-09-27T15:28:16;42.23;;;40.30;;
31438;SDS011;18062;48.872;9.220;2022-09-27T15:30:53;39.40;;;37.53;;
31438;SDS011;18062;48.872;9.220;2022-09-27T15:35:48;31.43;;;30.10;;
31438;SDS011;18062;48.872;9.220;2022-09-27T15:38:21;30.00;;;28.70;;
31438;SDS011;18062;48.872;9.220;2022-09-27T15:40:55;21.77;;;20.87;;
31438;SDS011;18062;48.872;9.220;2022-09-27T15:43:44;24.57;;;23.47;;
31438;SDS011;18062;48.872;9.220;2022-09-27T15:46:54;20.70;;;19.77;;
31438;SDS011;18062;48.872;9.220;2022-09-27T15:51:41;24.80;;;23.70;;
31438;SDS011;18062;48.872;9.220;2022-09-27T15:54:07;27.73;;;26.53;;
31438;SDS011;18062;48.872;9.220;2022-09-27T15:56:33;34.07;;;32.53;;
31438;SDS011;18062;48.872;9.220;2022-09-27T15:59:00;24.03;;;23.00;;
31438;SDS011;18062;48.872;9.220;2022-09-27T16:01:26;21.53;;;20.60;;
31438;SDS011;18062;48.872;9.220;2022-09-27T16:03:52;16.60;;;15.90;;
31438;SDS011;18062;48.872;9.220;2022-09-27T16:06:18;13.60;;;13.07;;
31438;SDS011;18062;48.872;9.220;2022-09-27T16:08:46;13.67;;;13.07;;
31438;SDS011;18062;48.872;9.220;2022-09-27T16:11:13;11.43;;;10.97;;
31438;SDS011;18062;48.872;9.220;2022-09-27T16:13:39;11.93;;;11.37;;
31438;SDS011;18062;48.872;9.220;2022-09-27T16:16:07;10.20;;;9.80;;
31438;SDS011;18062;48.872;9.220;2022-09-27T16:18:37;8.90;;;8.40;;
31438;SDS011;18062;48.872;9.220;2022-09-27T16:21:03;8.27;;;7.73;;
31438;SDS011;18062;48.872;9.220;2022-09-27T16:23:29;9.23;;;8.83;;
31438;SDS011;18062;48.872;9.220;2022-09-27T16:25:55;7.57;;;7.20;;
31438;SDS011;18062;48.872;9.220;2022-09-27T16:28:21;7.83;;;7.53;;
31438;SDS011;18062;48.872;9.220;2022-09-27T16:30:47;8.30;;;8.00;;
31438;SDS011;18062;48.872;9.220;2022-09-27T16:33:13;8.07;;;7.73;;
31438;SDS011;18062;48.872;9.220;2022-09-27T16:35:39;7.23;;;6.83;;
31438;SDS011;18062;48.872;9.220;2022-09-27T16:38:05;9.23;;;8.83;;
31438;SDS011;18062;48.872;9.220;2022-09-27T16:40:31;9.53;;;9.13;;
31438;SDS011;18062;48.872;9.220;2022-09-27T16:42:57;8.00;;;7.70;;
31438;SDS011;18062;48.872;9.220;2022-09-27T16:45:24;11.70;;;11.20;;
31438;SDS011;18062;48.872;9.220;2022-09-27T16:47:57;14.37;;;13.63;;
31438;SDS011;18062;48.872;9.220;2022-09-27T16:50:23;17.03;;;16.33;;
31438;SDS011;18062;48.872;9.220;2022-09-27T16:53:08;14.17;;;13.57;;
31438;SDS011;18062;48.872;9.220;2022-09-27T16:55:34;15.33;;;14.70;;
31438;SDS011;18062;48.872;9.220;2022-09-27T16:58:00;17.07;;;16.33;;
31438;SDS011;18062;48.872;9.220;2022-09-27T17:00:30;13.83;;;13.27;;
31438;SDS011;18062;48.872;9.220;2022-09-27T17:02:57;17.30;;;16.53;;
31438;SDS011;18062;48.872;9.220;2022-09-27T17:05:23;11.93;;;11.43;;
31438;SDS011;18062;48.872;9.220;2022-09-27T17:07:50;20.60;;;19.73;;
31438;SDS011;18062;48.872;9.220;2022-09-27T17:10:16;15.33;;;14.70;;
31438;SDS011;18062;48.872;9.220;2022-09-27T17:12:43;16.37;;;15.67;;
31438;SDS011;18062;48.872;9.220;2022-09-27T17:15:10;18.43;;;17.67;;
31438;SDS011;18062;48.872;9.220;2022-09-27T17:17:36;15.67;;;14.97;;
31438;SDS011;18062;48.872;9.220;2022-09-27T17:20:02;16.33;;;15.67;;
31438;SDS011;18062;48.872;9.220;2022-09-27T17:22:29;13.70;;;13.13;;
31438;SDS011;18062;48.872;9.220;2022-09-27T17:24:55;11.37;;;10.90;;
31438;SDS011;18062;48.872;9.220;2022-09-27T17:27:21;13.40;;;12.87;;
31438;SDS011;18062;48.872;9.220;2022-09-27T17:29:49;12.90;;;12.40;;
31438;SDS011;18062;48.872;9.220;2022-09-27T17:32:15;15.33;;;14.53;;